Time;durP1;ratioP1;P1;durP2;ratioP2;P2;SDS_P1;SDS_P2;PMS_P1;PMS_P2;Temp;Humidity;BMP_temperature;BMP_pressure;BME280_temperature;BME280_humidity;BME280_pressure;Samples;Min_cycle;Max_cycle;Signal;HPM_P1;HPM_P2
2021/03/03 00:01:43;;;;;;;9.57;5.82;;;;;11.30;102690.00;;;;5083907;28;20213;-80
2021/03/03 00:04:10;;;;;;;12.48;6.57;;;;;11.30;102701.00;;;;5088444;28;20194;-80
2021/03/03 00:06:37;;;;;;;11.65;6.38;;;;;11.30;102702.00;;;;5089550;28;20571;-80
2021/03/03 00:09:04;;;;;;;12.07;6.03;;;;;11.30;102701.00;;;;5087937;28;20195;-80
2021/03/03 00:11:31;;;;;;;10.20;5.80;;;;;11.20;102699.00;;;;5089297;28;20202;-79
2021/03/03 00:13:58;;;;;;;8.75;5.65;;;;;11.20;102700.00;;;;5087184;28;20206;-80
2021/03/03 00:16:25;;;;;;;12.85;6.47;;;;;11.20;102701.00;;;;5079808;28;20215;-80
2021/03/03 00:18:52;;;;;;;9.48;5.65;;;;;11.20;102692.00;;;;5086708;28;20205;-80
2021/03/03 00:21:19;;;;;;;11.35;6.40;;;;;11.20;102693.00;;;;5082521;28;20206;-79
2021/03/03 00:23:46;;;;;;;10.73;5.90;;;;;11.20;102698.00;;;;5079008;28;20206;-79
2021/03/03 00:26:12;;;;;;;9.43;6.22;;;;;11.20;102701.00;;;;5078372;28;20239;-79
2021/03/03 00:28:40;;;;;;;11.40;6.00;;;;;11.20;102697.00;;;;5086920;28;20243;-80
2021/03/03 00:31:07;;;;;;;10.98;6.10;;;;;11.10;102700.00;;;;5088119;28;20282;-80
2021/03/03 00:33:34;;;;;;;14.30;6.47;;;;;11.10;102698.00;;;;5087627;28;20197;-80
2021/03/03 00:36:01;;;;;;;11.15;6.18;;;;;11.10;102706.00;;;;5087608;28;20217;-79
2021/03/03 00:38:27;;;;;;;9.88;6.20;;;;;11.10;102706.00;;;;5074990;28;20197;-80
2021/03/03 00:40:54;;;;;;;10.98;6.22;;;;;11.10;102705.00;;;;5087853;28;20186;-80
2021/03/03 00:43:21;;;;;;;12.35;6.25;;;;;11.10;102696.00;;;;5076665;28;20199;-80
2021/03/03 00:45:47;;;;;;;13.32;6.78;;;;;11.10;102704.00;;;;5087290;28;20229;-80
2021/03/03 00:48:15;;;;;;;9.38;5.85;;;;;11.00;102717.00;;;;5087745;28;20190;-80
2021/03/03 00:50:42;;;;;;;9.25;5.38;;;;;11.00;102709.00;;;;5087326;28;20206;-79
2021/03/03 00:53:10;;;;;;;12.52;6.93;;;;;11.00;102698.00;;;;5088307;28;20710;-80
2021/03/03 00:55:37;;;;;;;10.80;6.43;;;;;11.00;102711.00;;;;5086901;28;20281;-81
2021/03/03 00:58:04;;;;;;;12.13;6.95;;;;;11.00;102702.00;;;;5086786;28;20711;-80
2021/03/03 01:00:30;;;;;;;9.77;5.97;;;;;10.90;102700.00;;;;5081395;28;20617;-80
2021/03/03 01:02:57;;;;;;;11.35;6.47;;;;;10.90;102700.00;;;;5088526;28;20203;-81
2021/03/03 01:05:25;;;;;;;14.15;6.82;;;;;10.90;102703.00;;;;5088271;28;20190;-80
2021/03/03 01:07:52;;;;;;;10.93;6.30;;;;;10.90;102705.00;;;;5087114;28;20194;-80
2021/03/03 01:10:19;;;;;;;9.63;5.68;;;;;10.90;102704.00;;;;5087760;28;20578;-80
2021/03/03 01:12:46;;;;;;;11.15;5.55;;;;;10.90;102705.00;;;;5085915;28;20202;-81
2021/03/03 01:15:13;;;;;;;11.73;6.25;;;;;10.80;102702.00;;;;5085546;28;20246;-80
2021/03/03 01:17:40;;;;;;;10.20;6.13;;;;;10.80;102697.00;;;;5079373;28;20222;-80
2021/03/03 01:20:10;;;;;;;11.85;6.60;;;;;10.80;102696.00;;;;5075714;28;20226;-80
2021/03/03 01:22:37;;;;;;;9.93;6.00;;;;;10.80;102703.00;;;;5083816;28;20277;-80
2021/03/03 01:25:05;;;;;;;8.95;5.55;;;;;10.80;102702.00;;;;5086178;28;20186;-80
2021/03/03 01:27:31;;;;;;;12.63;6.88;;;;;10.80;102700.00;;;;5086178;28;20207;-80
2021/03/03 01:29:58;;;;;;;10.45;5.90;;;;;10.70;102697.00;;;;5084662;28;20198;-80
2021/03/03 01:32:25;;;;;;;10.05;6.07;;;;;10.70;102687.00;;;;5087139;28;20203;-80
2021/03/03 01:34:52;;;;;;;9.75;5.50;;;;;10.70;102685.00;;;;5087119;28;20209;-79
2021/03/03 01:37:18;;;;;;;11.10;5.95;;;;;10.70;102682.00;;;;5087338;28;20222;-80
2021/03/03 01:39:46;;;;;;;10.35;5.80;;;;;10.70;102686.00;;;;5088041;28;20194;-81
2021/03/03 01:42:13;;;;;;;13.40;6.50;;;;;10.60;102691.00;;;;5080361;28;20205;-80
2021/03/03 01:44:40;;;;;;;10.38;5.78;;;;;10.60;102686.00;;;;5086684;28;20659;-81
2021/03/03 01:47:06;;;;;;;9.63;5.65;;;;;10.60;102692.00;;;;5087825;28;20231;-80
2021/03/03 01:49:33;;;;;;;10.90;6.97;;;;;10.60;102670.00;;;;5087274;28;20569;-79
2021/03/03 01:52:00;;;;;;;12.63;6.00;;;;;10.60;102677.00;;;;5088009;28;20190;-80
2021/03/03 01:54:27;;;;;;;10.07;6.32;;;;;10.50;102670.00;;;;5088113;28;20207;-80
2021/03/03 01:56:55;;;;;;;11.60;6.28;;;;;10.50;102671.00;;;;5086516;28;20218;-80
2021/03/03 01:59:22;;;;;;;10.82;5.90;;;;;10.50;102661.00;;;;5077368;28;20213;-81
2021/03/03 02:01:48;;;;;;;10.95;6.00;;;;;10.50;102659.00;;;;5087862;28;20248;-81
2021/03/03 02:04:15;;;;;;;11.40;5.78;;;;;10.50;102658.00;;;;5088013;28;20644;-80
2021/03/03 02:06:49;;;;;;;11.35;6.47;;;;;10.40;102657.00;;;;5087461;28;20201;-80
2021/03/03 02:09:23;;;;;;;11.52;6.57;;;;;10.40;102656.00;;;;5084311;28;20583;-80
2021/03/03 02:11:57;;;;;;;12.80;6.15;;;;;10.40;102660.00;;;;5076907;28;20203;-80
2021/03/03 02:14:27;;;;;;;13.98;7.13;;;;;10.40;102655.00;;;;5076481;28;20198;-80
2021/03/03 02:16:55;;;;;;;12.05;6.10;;;;;10.40;102654.00;;;;5086166;28;20718;-80
2021/03/03 02:19:24;;;;;;;11.40;6.47;;;;;10.40;102648.00;;;;5085601;28;20249;-80
2021/03/03 02:22:01;;;;;;;13.82;7.10;;;;;10.30;102644.00;;;;5083000;28;20289;-80
2021/03/03 02:24:36;;;;;;;11.00;5.68;;;;;10.30;102646.00;;;;5079084;28;20198;-80
2021/03/03 02:27:04;;;;;;;10.07;5.78;;;;;10.30;102641.00;;;;5086529;28;20202;-80
2021/03/03 02:29:32;;;;;;;10.43;5.97;;;;;10.30;102644.00;;;;5087804;28;20194;-80
2021/03/03 02:31:59;;;;;;;8.77;5.78;;;;;10.30;102638.00;;;;5091371;28;20206;-80
2021/03/03 02:34:28;;;;;;;11.13;6.05;;;;;10.30;102641.00;;;;5090607;28;20208;-80
2021/03/03 02:36:57;;;;;;;12.82;6.68;;;;;10.30;102643.00;;;;5077066;28;20222;-80
2021/03/03 02:39:26;;;;;;;10.63;6.18;;;;;10.20;102639.00;;;;5077935;28;20572;-80
2021/03/03 02:41:54;;;;;;;10.85;5.85;;;;;10.20;102635.00;;;;5087442;28;20213;-80
2021/03/03 02:44:22;;;;;;;10.30;5.97;;;;;10.20;102633.00;;;;5087612;28;20202;-80
2021/03/03 02:46:49;;;;;;;12.38;5.82;;;;;10.20;102645.00;;;;5088122;28;20222;-80
2021/03/03 02:49:19;;;;;;;9.60;5.20;;;;;10.20;102643.00;;;;5084122;28;20205;-80
2021/03/03 02:51:47;;;;;;;10.38;6.30;;;;;10.20;102639.00;;;;5090187;28;20194;-80
2021/03/03 02:54:14;;;;;;;9.13;5.53;;;;;10.20;102628.00;;;;5089330;28;20221;-80
2021/03/03 02:56:42;;;;;;;9.27;6.07;;;;;10.20;102634.00;;;;5085906;28;20229;-80
2021/03/03 02:59:17;;;;;;;10.25;6.32;;;;;10.10;102631.00;;;;5086396;28;20209;-80
2021/03/03 03:01:47;;;;;;;10.30;5.80;;;;;10.10;102632.00;;;;5076049;28;20202;-80
2021/03/03 03:04:18;;;;;;;11.73;5.82;;;;;10.10;102629.00;;;;5077716;28;20198;-80
2021/03/03 03:06:47;;;;;;;11.27;6.35;;;;;10.10;102627.00;;;;5078725;28;20194;-80
2021/03/03 03:09:16;;;;;;;9.93;5.45;;;;;10.10;102618.00;;;;5076584;28;20672;-80
2021/03/03 03:11:47;;;;;;;10.48;6.28;;;;;10.10;102618.00;;;;5077616;28;20308;-80
2021/03/03 03:14:18;;;;;;;11.52;6.82;;;;;10.10;102624.00;;;;5076586;28;20194;-80
2021/03/03 03:16:48;;;;;;;11.57;6.15;;;;;10.00;102618.00;;;;5076122;28;20218;-80
2021/03/03 03:19:19;;;;;;;11.23;6.07;;;;;10.00;102615.00;;;;5077654;28;20194;-80
2021/03/03 03:21:48;;;;;;;9.05;5.90;;;;;10.00;102614.00;;;;5082879;28;20609;-80
2021/03/03 03:24:18;;;;;;;9.00;5.00;;;;;10.00;102612.00;;;;5082118;28;20198;-80
2021/03/03 03:26:46;;;;;;;10.50;6.25;;;;;10.00;102616.00;;;;5087160;28;20222;-80
2021/03/03 03:29:15;;;;;;;13.73;6.18;;;;;10.00;102615.00;;;;5089811;28;20206;-79
2021/03/03 03:31:42;;;;;;;11.43;5.97;;;;;10.00;102613.00;;;;5089172;28;20199;-80
2021/03/03 03:34:14;;;;;;;13.15;6.78;;;;;9.90;102616.00;;;;5089760;28;20198;-81
2021/03/03 03:36:41;;;;;;;9.85;5.80;;;;;9.90;102612.00;;;;5069892;28;20272;-80
2021/03/03 03:39:09;;;;;;;11.32;6.82;;;;;9.90;102613.00;;;;5072513;28;20744;-80
2021/03/03 03:41:37;;;;;;;9.95;5.65;;;;;9.90;102613.00;;;;5088959;28;20259;-80
2021/03/03 03:44:07;;;;;;;10.48;6.03;;;;;9.90;102623.00;;;;5090401;28;20203;-80
2021/03/03 03:46:35;;;;;;;12.02;6.40;;;;;9.90;102611.00;;;;5089068;28;20222;-80
2021/03/03 03:49:03;;;;;;;12.18;7.00;;;;;9.90;102616.00;;;;5089822;28;20206;-80
2021/03/03 03:51:31;;;;;;;14.85;6.68;;;;;9.80;102621.00;;;;5088464;28;21084;-80
2021/03/03 03:53:59;;;;;;;11.25;6.65;;;;;9.90;102621.00;;;;5074673;28;20203;-80
2021/03/03 03:56:26;;;;;;;9.77;5.95;;;;;9.80;102629.00;;;;5086624;28;20248;-80
2021/03/03 03:58:53;;;;;;;10.75;7.20;;;;;9.80;102638.00;;;;5090637;28;20194;-80
2021/03/03 04:01:20;;;;;;;12.02;6.45;;;;;9.80;102627.00;;;;5088075;28;20194;-80
2021/03/03 04:03:46;;;;;;;14.05;6.30;;;;;9.80;102621.00;;;;5084134;28;20191;-80
2021/03/03 04:06:13;;;;;;;15.98;6.97;;;;;9.80;102633.00;;;;5085327;28;20210;-81
2021/03/03 04:08:41;;;;;;;10.05;6.10;;;;;9.80;102638.00;;;;5087874;28;20191;-81
2021/03/03 04:11:08;;;;;;;9.43;6.10;;;;;9.80;102633.00;;;;5084087;28;20202;-81
2021/03/03 04:13:35;;;;;;;12.55;7.10;;;;;9.80;102641.00;;;;5089970;28;20197;-80
2021/03/03 04:16:01;;;;;;;11.20;6.55;;;;;9.70;102642.00;;;;5078961;28;20245;-81
2021/03/03 04:18:28;;;;;;;11.90;6.75;;;;;9.70;102643.00;;;;5076483;28;20223;-80
2021/03/03 04:20:55;;;;;;;11.10;6.85;;;;;9.70;102634.00;;;;5082888;28;20217;-81
2021/03/03 04:23:22;;;;;;;12.23;7.05;;;;;9.70;102638.00;;;;5089537;28;20247;-81
2021/03/03 04:25:49;;;;;;;11.32;6.80;;;;;9.70;102627.00;;;;5079389;28;20202;-81
2021/03/03 04:28:16;;;;;;;14.23;7.70;;;;;9.70;102629.00;;;;5089323;28;20242;-80
2021/03/03 04:30:43;;;;;;;11.25;6.28;;;;;9.70;102629.00;;;;5088386;28;20194;-80
2021/03/03 04:33:10;;;;;;;12.20;6.68;;;;;9.70;102627.00;;;;5088383;28;20202;-81
2021/03/03 04:35:37;;;;;;;13.85;7.28;;;;;9.70;102623.00;;;;5088586;28;20191;-80
2021/03/03 04:38:03;;;;;;;11.52;6.78;;;;;9.70;102633.00;;;;5088377;28;20260;-80
2021/03/03 04:40:30;;;;;;;11.82;6.82;;;;;9.70;102628.00;;;;5086940;28;20194;-80
2021/03/03 04:42:58;;;;;;;12.52;6.68;;;;;9.70;102628.00;;;;5088156;28;20205;-80
2021/03/03 04:45:25;;;;;;;10.98;6.68;;;;;9.70;102639.00;;;;5088957;28;20272;-80
2021/03/03 04:47:51;;;;;;;13.38;6.70;;;;;9.70;102635.00;;;;5089170;28;20205;-79
2021/03/03 04:50:18;;;;;;;10.52;5.95;;;;;9.70;102634.00;;;;5087122;28;20793;-79
2021/03/03 04:52:45;;;;;;;11.75;6.55;;;;;9.70;102633.00;;;;5088159;28;20201;-79
2021/03/03 04:55:12;;;;;;;13.25;6.80;;;;;9.70;102648.00;;;;5072453;28;20201;-78
2021/03/03 04:57:39;;;;;;;14.60;7.22;;;;;9.70;102644.00;;;;5088169;28;20217;-79
2021/03/03 05:00:08;;;;;;;12.60;7.15;;;;;9.70;102649.00;;;;5088496;28;20198;-79
2021/03/03 05:02:35;;;;;;;12.15;7.50;;;;;9.70;102643.00;;;;5083923;28;20201;-79
2021/03/03 05:05:02;;;;;;;14.90;7.38;;;;;9.70;102633.00;;;;5088447;28;20209;-79
2021/03/03 05:07:28;;;;;;;16.27;6.53;;;;;9.70;102630.00;;;;5087455;28;20221;-79
2021/03/03 05:09:55;;;;;;;14.45;7.80;;;;;9.70;102627.00;;;;5075504;28;20202;-79
2021/03/03 05:12:23;;;;;;;12.38;6.72;;;;;9.70;102626.00;;;;5068843;28;20672;-80
2021/03/03 05:14:50;;;;;;;11.80;6.97;;;;;9.70;102622.00;;;;5086504;28;20240;-79
2021/03/03 05:17:17;;;;;;;12.55;7.28;;;;;9.70;102621.00;;;;5083856;28;20218;-79
2021/03/03 05:19:44;;;;;;;15.63;7.68;;;;;9.80;102621.00;;;;5074561;28;20206;-79
2021/03/03 05:22:11;;;;;;;16.90;7.55;;;;;9.70;102625.00;;;;5086896;28;20190;-80
2021/03/03 05:24:37;;;;;;;11.90;6.88;;;;;9.80;102619.00;;;;5085914;28;20548;-79
2021/03/03 05:27:04;;;;;;;12.35;7.65;;;;;9.70;102618.00;;;;5089727;28;20198;-81
2021/03/03 05:29:31;;;;;;;13.82;7.25;;;;;9.70;102608.00;;;;5087362;28;20265;-82
2021/03/03 05:31:58;;;;;;;11.55;7.28;;;;;9.70;102613.00;;;;5088247;28;20198;-82
2021/03/03 05:34:26;;;;;;;13.68;7.63;;;;;9.70;102603.00;;;;5088038;28;20202;-81
2021/03/03 05:36:52;;;;;;;12.85;7.53;;;;;9.70;102601.00;;;;5082611;28;20241;-81
2021/03/03 05:39:19;;;;;;;14.45;7.10;;;;;9.70;102602.00;;;;5088735;28;20259;-81
2021/03/03 05:41:46;;;;;;;12.55;7.32;;;;;9.70;102599.00;;;;5086323;28;20206;-80
2021/03/03 05:44:13;;;;;;;11.77;7.03;;;;;9.70;102601.00;;;;5083621;28;20202;-80
2021/03/03 05:46:43;;;;;;;12.48;8.00;;;;;9.70;102603.00;;;;5083061;28;20233;-80
2021/03/03 05:49:15;;;;;;;16.13;7.97;;;;;9.70;102598.00;;;;5080787;28;20202;-79
2021/03/03 05:51:44;;;;;;;11.38;7.30;;;;;9.70;102598.00;;;;5083207;28;20206;-80
2021/03/03 05:54:11;;;;;;;13.50;7.47;;;;;9.70;102599.00;;;;5075927;28;20195;-80
2021/03/03 05:56:38;;;;;;;11.90;7.45;;;;;9.70;102602.00;;;;5081747;28;20201;-80
2021/03/03 05:59:09;;;;;;;14.52;8.43;;;;;9.70;102604.00;;;;5078485;28;20194;-80
2021/03/03 06:01:36;;;;;;;13.75;7.82;;;;;9.70;102606.00;;;;5080488;28;20206;-80
2021/03/03 06:04:04;;;;;;;12.75;7.47;;;;;9.70;102619.00;;;;5082763;28;20199;-80
2021/03/03 06:06:31;;;;;;;12.70;7.00;;;;;9.70;102620.00;;;;5081839;28;20288;-80
2021/03/03 06:08:59;;;;;;;13.60;7.45;;;;;9.70;102618.00;;;;5077938;28;20544;-80
2021/03/03 06:11:25;;;;;;;16.73;8.07;;;;;9.70;102615.00;;;;5082584;28;21004;-80
2021/03/03 06:13:52;;;;;;;13.43;8.30;;;;;9.80;102615.00;;;;5090939;28;20194;-80
2021/03/03 06:16:20;;;;;;;10.13;7.20;;;;;9.80;102616.00;;;;5086445;28;20202;-80
2021/03/03 06:18:47;;;;;;;13.00;6.95;;;;;9.80;102613.00;;;;5089751;28;20244;-80
2021/03/03 06:21:25;;;;;;;14.93;8.27;;;;;9.70;102618.00;;;;5089637;28;20221;-80
2021/03/03 06:24:01;;;;;;;13.77;7.30;;;;;9.70;102614.00;;;;5083948;28;20194;-81
2021/03/03 06:26:27;;;;;;;12.45;7.65;;;;;9.80;102616.00;;;;5079090;28;20692;-79
2021/03/03 06:28:54;;;;;;;11.38;6.25;;;;;9.80;102624.00;;;;5079105;28;20203;-80
2021/03/03 06:31:26;;;;;;;14.15;7.88;;;;;9.80;102614.00;;;;5079409;28;20267;-80
2021/03/03 06:33:55;;;;;;;13.15;7.30;;;;;9.90;102619.00;;;;5081623;28;20201;-81
2021/03/03 06:36:25;;;;;;;13.65;7.75;;;;;9.90;102618.00;;;;5080205;28;20202;-79
2021/03/03 06:38:52;;;;;;;14.80;8.20;;;;;9.90;102625.00;;;;5082984;28;20231;-79
2021/03/03 06:41:19;;;;;;;12.40;7.10;;;;;9.90;102632.00;;;;5084251;28;20190;-81
2021/03/03 06:43:56;;;;;;;12.32;7.97;;;;;9.90;102641.00;;;;5081016;28;20198;-78
2021/03/03 06:46:24;;;;;;;11.85;6.75;;;;;10.00;102650.00;;;;5077756;28;20594;-80
2021/03/03 06:48:51;;;;;;;13.55;7.63;;;;;10.00;102650.00;;;;5081527;28;20203;-82
2021/03/03 06:51:26;;;;;;;14.93;7.72;;;;;10.00;102649.00;;;;5082960;28;20209;-80
2021/03/03 06:53:54;;;;;;;13.43;7.32;;;;;10.10;102655.00;;;;5082273;28;20206;-81
2021/03/03 06:56:40;;;;;;;14.45;7.93;;;;;10.00;102654.00;;;;5076685;28;20493;-80
2021/03/03 06:59:18;;;;;;;17.83;8.73;;;;;10.10;102659.00;;;;5079568;28;20198;-80
2021/03/03 07:01:46;;;;;;;11.30;7.32;;;;;10.20;102661.00;;;;5082568;28;20214;-78
2021/03/03 07:04:27;;;;;;;11.63;7.95;;;;;10.20;102654.00;;;;5079489;28;20245;-78
2021/03/03 07:06:55;;;;;;;13.02;8.45;;;;;10.30;102663.00;;;;5082055;28;20205;-78
2021/03/03 07:09:24;;;;;;;11.38;7.45;;;;;10.30;102662.00;;;;5082688;28;20587;-80
2021/03/03 07:12:02;;;;;;;12.98;8.07;;;;;10.30;102660.00;;;;5080977;28;20256;-80
2021/03/03 07:14:30;;;;;;;11.68;7.53;;;;;10.40;102658.00;;;;5073541;28;20205;-80
2021/03/03 07:17:14;;;;;;;13.65;6.93;;;;;10.50;102675.00;;;;5089728;28;20198;-80
2021/03/03 07:19:43;;;;;;;14.38;7.82;;;;;10.50;102671.00;;;;5077554;28;20206;-81
2021/03/03 07:22:28;;;;;;;14.15;8.20;;;;;10.50;102668.00;;;;5081562;28;20552;-80
2021/03/03 07:24:57;;;;;;;11.13;7.43;;;;;10.70;102673.00;;;;5081403;28;20203;-80
2021/03/03 07:27:25;;;;;;;12.05;7.20;;;;;10.70;102668.00;;;;5087992;28;20232;-80
2021/03/03 07:29:53;;;;;;;12.32;7.72;;;;;10.80;102669.00;;;;5086747;28;20586;-80
2021/03/03 07:32:21;;;;;;;14.48;7.95;;;;;10.90;102678.00;;;;5089753;28;20201;-81
2021/03/03 07:34:50;;;;;;;14.05;7.80;;;;;10.90;102677.00;;;;5077560;28;20207;-80
2021/03/03 07:37:19;;;;;;;12.93;8.27;;;;;11.00;102685.00;;;;5085934;28;20226;-82
2021/03/03 07:39:54;;;;;;;13.43;8.05;;;;;11.10;102681.00;;;;5080456;28;20203;-81
2021/03/03 07:42:24;;;;;;;13.82;7.75;;;;;11.10;102679.00;;;;5089458;28;20672;-81
2021/03/03 07:44:53;;;;;;;11.00;7.35;;;;;11.20;102681.00;;;;5087301;28;20202;-82
2021/03/03 07:47:21;;;;;;;12.82;7.93;;;;;11.30;102685.00;;;;5090101;28;20201;-80
2021/03/03 07:49:49;;;;;;;10.73;7.43;;;;;11.40;102685.00;;;;5089330;28;20205;-80
2021/03/03 07:52:19;;;;;;;13.15;7.72;;;;;11.40;102697.00;;;;5088882;28;20228;-80
2021/03/03 07:54:46;;;;;;;12.73;7.82;;;;;11.50;102692.00;;;;5082082;28;20267;-79
2021/03/03 07:57:14;;;;;;;15.20;9.35;;;;;11.60;102694.00;;;;5089553;28;20963;-79
2021/03/03 07:59:44;;;;;;;14.20;8.38;;;;;11.70;102691.00;;;;5090587;28;20221;-79
2021/03/03 08:02:11;;;;;;;12.60;8.07;;;;;11.80;102691.00;;;;5088687;28;20201;-79
2021/03/03 08:04:39;;;;;;;12.95;8.82;;;;;11.80;102698.00;;;;5089383;28;20194;-79
2021/03/03 08:07:17;;;;;;;18.25;9.57;;;;;11.90;102702.00;;;;5089459;28;20198;-78
2021/03/03 08:10:27;;;;;;;13.23;9.10;;;;;11.90;102694.00;;;;5087355;28;20202;-79
2021/03/03 08:13:02;;;;;;;14.18;9.02;;;;;12.00;102685.00;;;;5083176;28;20244;-80
2021/03/03 08:15:35;;;;;;;17.05;9.38;;;;;12.20;102687.00;;;;5086996;28;20679;-79
2021/03/03 08:18:32;;;;;;;19.45;10.02;;;;;12.20;102690.00;;;;5088074;28;20229;-78
2021/03/03 08:21:00;;;;;;;17.45;9.25;;;;;12.40;102695.00;;;;5078232;28;20262;-78
2021/03/03 08:23:45;;;;;;;15.88;9.30;;;;;12.40;102695.00;;;;5088744;28;20217;-79
2021/03/03 08:26:37;;;;;;;16.42;9.23;;;;;12.40;102689.00;;;;5087518;28;20194;-78
2021/03/03 08:29:27;;;;;;;14.48;9.27;;;;;12.50;102697.00;;;;5085752;28;20204;-78
2021/03/03 08:32:13;;;;;;;16.10;10.48;;;;;12.60;102685.00;;;;5088171;28;20213;-78
2021/03/03 08:34:50;;;;;;;15.90;10.32;;;;;12.70;102676.00;;;;5088650;28;20623;-78
2021/03/03 08:37:31;;;;;;;17.17;10.70;;;;;12.70;102672.00;;;;5087200;28;20214;-79
2021/03/03 08:39:59;;;;;;;15.65;10.95;;;;;12.80;102678.00;;;;5088984;28;20202;-79
2021/03/03 08:42:34;;;;;;;16.10;9.38;;;;;12.90;102674.00;;;;5089395;28;20659;-78
2021/03/03 08:45:11;;;;;;;14.93;10.10;;;;;13.00;102671.00;;;;5086829;28;20193;-79
2021/03/03 08:47:53;;;;;;;19.23;10.45;;;;;13.00;102673.00;;;;5081746;28;20226;-80
2021/03/03 08:50:45;;;;;;;15.45;9.65;;;;;13.10;102672.00;;;;5083229;28;20191;-81
2021/03/03 08:53:31;;;;;;;17.48;9.57;;;;;13.20;102678.00;;;;5088291;28;20201;-78
2021/03/03 08:56:00;;;;;;;17.70;10.63;;;;;13.30;102682.00;;;;5087830;28;20195;-78
2021/03/03 08:59:00;;;;;;;15.77;9.32;;;;;13.30;102686.00;;;;5087281;28;20214;-79
2021/03/03 09:01:55;;;;;;;14.20;8.25;;;;;13.40;102685.00;;;;5069017;28;20199;-81
2021/03/03 09:04:25;;;;;;;13.98;9.65;;;;;13.60;102689.00;;;;5085300;28;20660;-79
2021/03/03 09:06:56;;;;;;;17.60;10.07;;;;;13.70;102691.00;;;;5088355;28;20194;-80
2021/03/03 09:09:24;;;;;;;17.55;10.00;;;;;13.80;102692.00;;;;5088210;28;20309;-81
2021/03/03 09:12:01;;;;;;;16.60;11.15;;;;;13.80;102692.00;;;;5083792;28;20206;-82
2021/03/03 09:14:29;;;;;;;17.27;10.70;;;;;13.90;102692.00;;;;5087079;28;20201;-82
2021/03/03 09:16:57;;;;;;;18.05;11.45;;;;;13.90;102694.00;;;;5087250;28;20204;-80
2021/03/03 09:19:26;;;;;;;19.52;10.32;;;;;14.00;102695.00;;;;5085580;28;20190;-81
2021/03/03 09:21:53;;;;;;;17.52;9.13;;;;;14.10;102685.00;;;;5087655;28;20214;-81
2021/03/03 09:24:20;;;;;;;17.30;10.73;;;;;14.10;102686.00;;;;5088499;28;20571;-82
2021/03/03 09:26:47;;;;;;;16.48;10.82;;;;;14.20;102684.00;;;;5071852;28;20198;-80
2021/03/03 09:29:29;;;;;;;16.15;9.98;;;;;14.20;102682.00;;;;5088185;28;20214;-81
2021/03/03 09:31:57;;;;;;;14.88;9.88;;;;;14.30;102679.00;;;;5085305;28;20641;-80
2021/03/03 09:34:25;;;;;;;14.40;9.40;;;;;14.40;102673.00;;;;5083056;28;20667;-79
2021/03/03 09:36:56;;;;;;;14.07;9.80;;;;;14.40;102676.00;;;;5088026;28;20190;-80
2021/03/03 09:39:24;;;;;;;16.13;10.38;;;;;14.50;102671.00;;;;5087139;28;20652;-81
2021/03/03 09:41:56;;;;;;;17.73;9.52;;;;;14.60;102673.00;;;;5087660;28;20279;-81
2021/03/03 09:44:23;;;;;;;15.60;10.20;;;;;14.70;102669.00;;;;5082284;28;21789;-80
2021/03/03 09:46:59;;;;;;;16.80;10.65;;;;;14.80;102669.00;;;;5082615;28;20227;-80
2021/03/03 09:49:29;;;;;;;16.13;10.70;;;;;14.90;102671.00;;;;5087308;28;20190;-81
2021/03/03 09:51:56;;;;;;;17.92;11.18;;;;;15.00;102673.00;;;;5085484;28;20277;-82
2021/03/03 09:54:31;;;;;;;19.65;12.23;;;;;15.00;102667.00;;;;5084395;28;20564;-81
2021/03/03 09:57:06;;;;;;;18.00;11.55;;;;;15.10;102662.00;;;;5083443;28;20202;-81
2021/03/03 09:59:34;;;;;;;16.83;11.63;;;;;15.20;102662.00;;;;5073222;28;20561;-81
2021/03/03 10:02:02;;;;;;;20.80;13.75;;;;;15.30;102660.00;;;;5085493;28;20281;-81
2021/03/03 10:04:30;;;;;;;19.65;13.15;;;;;15.40;102667.00;;;;5082203;28;20257;-80
2021/03/03 10:06:58;;;;;;;19.20;12.65;;;;;15.50;102662.00;;;;5085865;28;20285;-82
2021/03/03 10:09:26;;;;;;;22.83;13.05;;;;;15.60;102666.00;;;;5085844;28;20209;-83
2021/03/03 10:11:53;;;;;;;22.52;14.18;;;;;15.70;102662.00;;;;5086614;28;20233;-80
2021/03/03 10:14:20;;;;;;;24.42;14.05;;;;;15.80;102667.00;;;;5075900;28;20206;-80
2021/03/03 10:17:00;;;;;;;20.58;14.18;;;;;15.80;102673.00;;;;5080848;28;20210;-80
2021/03/03 10:19:28;;;;;;;18.30;13.80;;;;;15.90;102673.00;;;;5080159;28;20202;-81
2021/03/03 10:21:55;;;;;;;20.30;13.50;;;;;16.00;102672.00;;;;5085928;28;20594;-80
2021/03/03 10:24:25;;;;;;;20.95;15.27;;;;;16.00;102670.00;;;;5086010;28;20198;-80
2021/03/03 10:26:52;;;;;;;25.88;17.67;;;;;16.00;102675.00;;;;5085987;28;20623;-79
2021/03/03 10:29:32;;;;;;;24.20;17.42;;;;;16.00;102668.00;;;;5078434;28;20254;-79
2021/03/03 10:32:10;;;;;;;24.27;16.95;;;;;16.10;102657.00;;;;5083760;28;20209;-79
2021/03/03 10:34:37;;;;;;;24.98;16.10;;;;;16.20;102660.00;;;;5071075;28;20234;-79
2021/03/03 10:37:05;;;;;;;25.83;16.92;;;;;16.20;102660.00;;;;5085800;28;20206;-78
2021/03/03 10:39:33;;;;;;;26.25;16.45;;;;;16.30;102666.00;;;;5085553;28;20285;-79
2021/03/03 10:42:02;;;;;;;28.05;17.55;;;;;16.30;102672.00;;;;5083085;28;20325;-79
2021/03/03 10:44:39;;;;;;;27.33;18.08;;;;;16.30;102668.00;;;;5087103;28;20213;-80
2021/03/03 10:47:06;;;;;;;25.00;17.45;;;;;16.50;102668.00;;;;5080318;28;20748;-80
2021/03/03 10:49:35;;;;;;;25.20;17.33;;;;;16.60;102667.00;;;;5087703;28;20197;-80
2021/03/03 10:52:02;;;;;;;24.25;18.48;;;;;16.70;102666.00;;;;5082609;28;20202;-80
2021/03/03 10:54:33;;;;;;;26.85;17.52;;;;;16.70;102663.00;;;;5085577;28;20198;-79
2021/03/03 10:57:08;;;;;;;27.45;18.20;;;;;16.80;102664.00;;;;5087824;28;20228;-78
2021/03/03 10:59:36;;;;;;;27.05;18.92;;;;;16.90;102666.00;;;;5088754;28;20206;-78
2021/03/03 11:02:04;;;;;;;23.60;16.65;;;;;17.00;102662.00;;;;5086420;28;20291;-78
2021/03/03 11:04:41;;;;;;;30.73;18.33;;;;;17.00;102668.00;;;;5080338;28;20618;-78
2021/03/03 11:07:08;;;;;;;27.23;18.90;;;;;17.10;102667.00;;;;5077704;28;20201;-78
2021/03/03 11:09:36;;;;;;;27.20;16.88;;;;;17.20;102667.00;;;;5088696;28;20242;-78
2021/03/03 11:12:04;;;;;;;28.20;18.15;;;;;17.30;102668.00;;;;5090763;28;20263;-79
2021/03/03 11:14:31;;;;;;;27.65;18.95;;;;;17.40;102671.00;;;;5080535;28;20202;-78
2021/03/03 11:17:00;;;;;;;25.00;17.77;;;;;17.50;102669.00;;;;5088856;28;20672;-78
2021/03/03 11:19:27;;;;;;;24.98;17.58;;;;;17.70;102665.00;;;;5088169;28;20234;-78
2021/03/03 11:21:55;;;;;;;29.67;20.02;;;;;17.80;102659.00;;;;5085715;28;20601;-78
2021/03/03 11:24:22;;;;;;;25.42;18.88;;;;;17.90;102659.00;;;;5088977;28;20199;-79
2021/03/03 11:26:50;;;;;;;32.35;19.15;;;;;17.90;102660.00;;;;5087066;28;20210;-79
2021/03/03 11:29:17;;;;;;;28.08;18.00;;;;;18.00;102660.00;;;;5085621;28;20695;-79
2021/03/03 11:31:45;;;;;;;30.95;19.73;;;;;18.00;102660.00;;;;5088899;28;20251;-79
2021/03/03 11:34:12;;;;;;;26.15;16.73;;;;;18.00;102659.00;;;;5089348;28;20272;-80
2021/03/03 11:36:39;;;;;;;25.58;17.50;;;;;18.00;102657.00;;;;5090240;28;20201;-79
2021/03/03 11:39:07;;;;;;;25.27;17.08;;;;;18.10;102660.00;;;;5087610;28;20695;-80
2021/03/03 11:41:34;;;;;;;19.27;14.57;;;;;18.10;102658.00;;;;5090413;28;20206;-80
2021/03/03 11:44:02;;;;;;;23.27;16.48;;;;;18.20;102641.00;;;;5087586;28;20190;-79
2021/03/03 11:46:29;;;;;;;21.75;15.45;;;;;18.30;102650.00;;;;5090270;28;20222;-79
2021/03/03 11:48:55;;;;;;;19.88;15.05;;;;;18.40;102647.00;;;;5089686;28;20625;-79
2021/03/03 11:51:22;;;;;;;18.42;14.05;;;;;18.50;102646.00;;;;5079594;28;20195;-79
2021/03/03 11:53:50;;;;;;;20.23;13.63;;;;;18.60;102640.00;;;;5089448;28;20202;-80
2021/03/03 11:56:16;;;;;;;20.58;15.60;;;;;18.60;102647.00;;;;5086344;28;20224;-79
2021/03/03 11:58:44;;;;;;;20.52;15.13;;;;;18.60;102645.00;;;;5083361;28;20234;-79
2021/03/03 12:01:12;;;;;;;20.98;14.48;;;;;18.70;102646.00;;;;5081826;28;20671;-79
2021/03/03 12:03:38;;;;;;;19.95;14.98;;;;;18.70;102640.00;;;;5085343;28;20225;-79
2021/03/03 12:06:05;;;;;;;21.23;14.82;;;;;18.80;102630.00;;;;5083992;28;20224;-79
2021/03/03 12:08:32;;;;;;;21.13;14.88;;;;;18.90;102645.00;;;;5087593;28;20690;-79
2021/03/03 12:10:59;;;;;;;25.00;17.25;;;;;18.90;102632.00;;;;5085686;28;20723;-80
2021/03/03 12:13:25;;;;;;;24.75;16.63;;;;;18.90;102617.00;;;;5083147;28;20695;-80